<?xml version="1.0" encoding="UTF-8" standalone="no" ?>
<gpx xmlns="http://www.topografix.com/GPX/1/1" xmlns:xsi="http://www.w3.org/2001/XMLSchema-instance" xsi:schemaLocation="http://www.topografix.com/GPX/1/1 http://www.topografix.com/GPX/1/1/gpx.xsd" version="1.1" creator="VisuGPX - https://www.visugpx.com">
  <metadata>
    <name>38-L-Séjour : Malleval en Vercors - 14 oct</name>
    <desc><![CDATA[38-L-Malleval en Vercors : Malleval en Vercors
2024-10-14

]]></desc>
  </metadata>
  <trk>
    <name><![CDATA[2024-10-14-01]]></name>
    <extensions>
      <line xmlns="http://www.topografix.com/GPX/gpx_style/0/2">
        <width>4</width>
      </line>
    </extensions>
    <trkseg>
      <trkpt lat="45.14147" lon="5.43987">
        <ele>1013.8</ele>
        <time>2024-10-14T07:57:24.000Z</time>
      </trkpt>
      <trkpt lat="45.14147" lon="5.43987">
        <ele>1013.8</ele>
        <time>2024-10-14T07:57:25.000Z</time>
      </trkpt>
      <trkpt lat="45.14154" lon="5.43997">
        <ele>1014.8</ele>
        <time>2024-10-14T07:58:08.000Z</time>
      </trkpt>
      <trkpt lat="45.14146" lon="5.43988">
        <ele>1014.7</ele>
        <time>2024-10-14T07:58:35.000Z</time>
      </trkpt>
      <trkpt lat="45.14138" lon="5.43983">
        <ele>1013.2</ele>
        <time>2024-10-14T07:58:47.000Z</time>
      </trkpt>
      <trkpt lat="45.14141" lon="5.43971">
        <ele>1011.4</ele>
        <time>2024-10-14T07:59:37.000Z</time>
      </trkpt>
      <trkpt lat="45.14145" lon="5.43959">
        <ele>1010.6</ele>
        <time>2024-10-14T08:00:06.000Z</time>
      </trkpt>
      <trkpt lat="45.14149" lon="5.43948">
        <ele>1009.6</ele>
        <time>2024-10-14T08:00:31.000Z</time>
      </trkpt>
      <trkpt lat="45.14154" lon="5.43936">
        <ele>1008.4</ele>
        <time>2024-10-14T08:01:29.000Z</time>
      </trkpt>
      <trkpt lat="45.14162" lon="5.43928">
        <ele>1008.1</ele>
        <time>2024-10-14T08:01:56.000Z</time>
      </trkpt>
      <trkpt lat="45.14169" lon="5.43918">
        <ele>1007.5</ele>
        <time>2024-10-14T08:02:05.000Z</time>
      </trkpt>
      <trkpt lat="45.14177" lon="5.43911">
        <ele>1006.5</ele>
        <time>2024-10-14T08:02:16.000Z</time>
      </trkpt>
      <trkpt lat="45.14185" lon="5.43901">
        <ele>1005.7</ele>
        <time>2024-10-14T08:02:25.000Z</time>
      </trkpt>
      <trkpt lat="45.14191" lon="5.43891">
        <ele>1005</ele>
        <time>2024-10-14T08:02:35.000Z</time>
      </trkpt>
      <trkpt lat="45.14197" lon="5.4388">
        <ele>1004.1</ele>
        <time>2024-10-14T08:02:45.000Z</time>
      </trkpt>
      <trkpt lat="45.14201" lon="5.43867">
        <ele>1002.9</ele>
        <time>2024-10-14T08:02:55.000Z</time>
      </trkpt>
      <trkpt lat="45.14205" lon="5.43855">
        <ele>1001.9</ele>
        <time>2024-10-14T08:03:04.000Z</time>
      </trkpt>
      <trkpt lat="45.14203" lon="5.43843">
        <ele>1000.7</ele>
        <time>2024-10-14T08:03:13.000Z</time>
      </trkpt>
      <trkpt lat="45.14196" lon="5.43833">
        <ele>999.7</ele>
        <time>2024-10-14T08:03:22.000Z</time>
      </trkpt>
      <trkpt lat="45.14187" lon="5.43829">
        <ele>998.9</ele>
        <time>2024-10-14T08:03:33.000Z</time>
      </trkpt>
      <trkpt lat="45.14177" lon="5.43827">
        <ele>997.8</ele>
        <time>2024-10-14T08:03:46.000Z</time>
      </trkpt>
      <trkpt lat="45.14168" lon="5.43828">
        <ele>997</ele>
        <time>2024-10-14T08:03:56.000Z</time>
      </trkpt>
      <trkpt lat="45.14159" lon="5.43831">
        <ele>996.5</ele>
        <time>2024-10-14T08:04:03.000Z</time>
      </trkpt>
      <trkpt lat="45.1415" lon="5.43835">
        <ele>995.8</ele>
        <time>2024-10-14T08:04:10.000Z</time>
      </trkpt>
      <trkpt lat="45.14147" lon="5.43823">
        <ele>995.2</ele>
        <time>2024-10-14T08:04:20.000Z</time>
      </trkpt>
      <trkpt lat="45.14154" lon="5.43814">
        <ele>994.1</ele>
        <time>2024-10-14T08:04:30.000Z</time>
      </trkpt>
      <trkpt lat="45.14162" lon="5.43806">
        <ele>993</ele>
        <time>2024-10-14T08:04:40.000Z</time>
      </trkpt>
      <trkpt lat="45.1417" lon="5.43801">
        <ele>991.8</ele>
        <time>2024-10-14T08:04:49.000Z</time>
      </trkpt>
      <trkpt lat="45.14179" lon="5.43796">
        <ele>990.7</ele>
        <time>2024-10-14T08:04:58.000Z</time>
      </trkpt>
      <trkpt lat="45.14188" lon="5.43793">
        <ele>989.6</ele>
        <time>2024-10-14T08:05:08.000Z</time>
      </trkpt>
      <trkpt lat="45.14198" lon="5.43793">
        <ele>988.9</ele>
        <time>2024-10-14T08:05:17.000Z</time>
      </trkpt>
      <trkpt lat="45.14207" lon="5.43795">
        <ele>988.3</ele>
        <time>2024-10-14T08:05:26.000Z</time>
      </trkpt>
      <trkpt lat="45.14216" lon="5.438">
        <ele>987.5</ele>
        <time>2024-10-14T08:05:35.000Z</time>
      </trkpt>
      <trkpt lat="45.14225" lon="5.43803">
        <ele>986.8</ele>
        <time>2024-10-14T08:05:43.000Z</time>
      </trkpt>
      <trkpt lat="45.14234" lon="5.43804">
        <ele>985.8</ele>
        <time>2024-10-14T08:05:54.000Z</time>
      </trkpt>
      <trkpt lat="45.14244" lon="5.43799">
        <ele>984.9</ele>
        <time>2024-10-14T08:06:03.000Z</time>
      </trkpt>
      <trkpt lat="45.14251" lon="5.43791">
        <ele>984.2</ele>
        <time>2024-10-14T08:06:12.000Z</time>
      </trkpt>
      <trkpt lat="45.14258" lon="5.43782">
        <ele>983.6</ele>
        <time>2024-10-14T08:06:21.000Z</time>
      </trkpt>
      <trkpt lat="45.14267" lon="5.43779">
        <ele>982.5</ele>
        <time>2024-10-14T08:06:30.000Z</time>
      </trkpt>
      <trkpt lat="45.14276" lon="5.43775">
        <ele>981.9</ele>
        <time>2024-10-14T08:06:38.000Z</time>
      </trkpt>
      <trkpt lat="45.14286" lon="5.43775">
        <ele>980.5</ele>
        <time>2024-10-14T08:06:47.000Z</time>
      </trkpt>
      <trkpt lat="45.14295" lon="5.43773">
        <ele>979.6</ele>
        <time>2024-10-14T08:06:55.000Z</time>
      </trkpt>
      <trkpt lat="45.14304" lon="5.43772">
        <ele>978.4</ele>
        <time>2024-10-14T08:07:04.000Z</time>
      </trkpt>
      <trkpt lat="45.14314" lon="5.43771">
        <ele>977.5</ele>
        <time>2024-10-14T08:07:14.000Z</time>
      </trkpt>
      <trkpt lat="45.14324" lon="5.43769">
        <ele>975.8</ele>
        <time>2024-10-14T08:07:27.000Z</time>
      </trkpt>
      <trkpt lat="45.14333" lon="5.43766">
        <ele>974.7</ele>
        <time>2024-10-14T08:07:38.000Z</time>
      </trkpt>
      <trkpt lat="45.14342" lon="5.43761">
        <ele>973.2</ele>
        <time>2024-10-14T08:08:26.000Z</time>
      </trkpt>
      <trkpt lat="45.14351" lon="5.43758">
        <ele>972</ele>
        <time>2024-10-14T08:08:37.000Z</time>
      </trkpt>
      <trkpt lat="45.14361" lon="5.43755">
        <ele>970.7</ele>
        <time>2024-10-14T08:08:46.000Z</time>
      </trkpt>
      <trkpt lat="45.14371" lon="5.43756">
        <ele>969.3</ele>
        <time>2024-10-14T08:08:56.000Z</time>
      </trkpt>
      <trkpt lat="45.14381" lon="5.43756">
        <ele>968.3</ele>
        <time>2024-10-14T08:09:06.000Z</time>
      </trkpt>
      <trkpt lat="45.1439" lon="5.43755">
        <ele>966.6</ele>
        <time>2024-10-14T08:09:16.000Z</time>
      </trkpt>
      <trkpt lat="45.14399" lon="5.43751">
        <ele>967.4</ele>
        <time>2024-10-14T08:09:23.000Z</time>
      </trkpt>
      <trkpt lat="45.14408" lon="5.4375">
        <ele>967.8</ele>
        <time>2024-10-14T08:09:31.000Z</time>
      </trkpt>
      <trkpt lat="45.14418" lon="5.4375">
        <ele>967</ele>
        <time>2024-10-14T08:09:41.000Z</time>
      </trkpt>
      <trkpt lat="45.14427" lon="5.43751">
        <ele>966.3</ele>
        <time>2024-10-14T08:09:50.000Z</time>
      </trkpt>
      <trkpt lat="45.14436" lon="5.43753">
        <ele>965.7</ele>
        <time>2024-10-14T08:09:59.000Z</time>
      </trkpt>
      <trkpt lat="45.14445" lon="5.43755">
        <ele>964.8</ele>
        <time>2024-10-14T08:10:09.000Z</time>
      </trkpt>
      <trkpt lat="45.14454" lon="5.43758">
        <ele>963.9</ele>
        <time>2024-10-14T08:10:19.000Z</time>
      </trkpt>
      <trkpt lat="45.14462" lon="5.43762">
        <ele>962.7</ele>
        <time>2024-10-14T08:11:01.000Z</time>
      </trkpt>
      <trkpt lat="45.14472" lon="5.43764">
        <ele>961.6</ele>
        <time>2024-10-14T08:11:28.000Z</time>
      </trkpt>
      <trkpt lat="45.14481" lon="5.43766">
        <ele>961</ele>
        <time>2024-10-14T08:11:39.000Z</time>
      </trkpt>
      <trkpt lat="45.14487" lon="5.43775">
        <ele>960.1</ele>
        <time>2024-10-14T08:11:53.000Z</time>
      </trkpt>
      <trkpt lat="45.14497" lon="5.43775">
        <ele>958.9</ele>
        <time>2024-10-14T08:12:16.000Z</time>
      </trkpt>
      <trkpt lat="45.14505" lon="5.43778">
        <ele>958.1</ele>
        <time>2024-10-14T08:12:29.000Z</time>
      </trkpt>
      <trkpt lat="45.14515" lon="5.43781">
        <ele>956.6</ele>
        <time>2024-10-14T08:12:41.000Z</time>
      </trkpt>
      <trkpt lat="45.14525" lon="5.43782">
        <ele>955.8</ele>
        <time>2024-10-14T08:12:50.000Z</time>
      </trkpt>
      <trkpt lat="45.14534" lon="5.43782">
        <ele>954.8</ele>
        <time>2024-10-14T08:12:58.000Z</time>
      </trkpt>
      <trkpt lat="45.14543" lon="5.43782">
        <ele>953.9</ele>
        <time>2024-10-14T08:13:06.000Z</time>
      </trkpt>
      <trkpt lat="45.14553" lon="5.43781">
        <ele>953.2</ele>
        <time>2024-10-14T08:13:15.000Z</time>
      </trkpt>
      <trkpt lat="45.14562" lon="5.4378">
        <ele>952.2</ele>
        <time>2024-10-14T08:13:27.000Z</time>
      </trkpt>
      <trkpt lat="45.14571" lon="5.43781">
        <ele>950.5</ele>
        <time>2024-10-14T08:13:37.000Z</time>
      </trkpt>
      <trkpt lat="45.14581" lon="5.43779">
        <ele>949.2</ele>
        <time>2024-10-14T08:13:47.000Z</time>
      </trkpt>
      <trkpt lat="45.14591" lon="5.4378">
        <ele>948.9</ele>
        <time>2024-10-14T08:14:00.000Z</time>
      </trkpt>
      <trkpt lat="45.146" lon="5.43781">
        <ele>946.5</ele>
        <time>2024-10-14T08:14:25.000Z</time>
      </trkpt>
      <trkpt lat="45.14611" lon="5.43782">
        <ele>944.6</ele>
        <time>2024-10-14T08:14:37.000Z</time>
      </trkpt>
      <trkpt lat="45.1462" lon="5.4378">
        <ele>943.5</ele>
        <time>2024-10-14T08:14:44.000Z</time>
      </trkpt>
      <trkpt lat="45.14629" lon="5.43774">
        <ele>943</ele>
        <time>2024-10-14T08:14:54.000Z</time>
      </trkpt>
      <trkpt lat="45.14637" lon="5.43769">
        <ele>941.8</ele>
        <time>2024-10-14T08:15:03.000Z</time>
      </trkpt>
      <trkpt lat="45.14646" lon="5.43766">
        <ele>940.6</ele>
        <time>2024-10-14T08:15:11.000Z</time>
      </trkpt>
      <trkpt lat="45.14655" lon="5.43759">
        <ele>938.7</ele>
        <time>2024-10-14T08:15:22.000Z</time>
      </trkpt>
      <trkpt lat="45.14662" lon="5.4375">
        <ele>937.2</ele>
        <time>2024-10-14T08:15:34.000Z</time>
      </trkpt>
      <trkpt lat="45.14667" lon="5.43739">
        <ele>935.9</ele>
        <time>2024-10-14T08:15:47.000Z</time>
      </trkpt>
      <trkpt lat="45.14676" lon="5.43744">
        <ele>935.7</ele>
        <time>2024-10-14T08:16:20.000Z</time>
      </trkpt>
      <trkpt lat="45.14682" lon="5.43755">
        <ele>936.2</ele>
        <time>2024-10-14T08:16:36.000Z</time>
      </trkpt>
      <trkpt lat="45.14688" lon="5.43764">
        <ele>936.1</ele>
        <time>2024-10-14T08:16:45.000Z</time>
      </trkpt>
      <trkpt lat="45.14694" lon="5.43775">
        <ele>935.8</ele>
        <time>2024-10-14T08:16:55.000Z</time>
      </trkpt>
      <trkpt lat="45.147" lon="5.43785">
        <ele>936.3</ele>
        <time>2024-10-14T08:17:13.000Z</time>
      </trkpt>
      <trkpt lat="45.14705" lon="5.43797">
        <ele>936.1</ele>
        <time>2024-10-14T08:17:27.000Z</time>
      </trkpt>
      <trkpt lat="45.14712" lon="5.43806">
        <ele>936.2</ele>
        <time>2024-10-14T08:17:37.000Z</time>
      </trkpt>
      <trkpt lat="45.14719" lon="5.43816">
        <ele>936.3</ele>
        <time>2024-10-14T08:17:47.000Z</time>
      </trkpt>
      <trkpt lat="45.14726" lon="5.43826">
        <ele>936.6</ele>
        <time>2024-10-14T08:17:57.000Z</time>
      </trkpt>
      <trkpt lat="45.14732" lon="5.43837">
        <ele>937</ele>
        <time>2024-10-14T08:18:08.000Z</time>
      </trkpt>
      <trkpt lat="45.14739" lon="5.43846">
        <ele>937.5</ele>
        <time>2024-10-14T08:18:17.000Z</time>
      </trkpt>
      <trkpt lat="45.14746" lon="5.43856">
        <ele>938.2</ele>
        <time>2024-10-14T08:18:28.000Z</time>
      </trkpt>
      <trkpt lat="45.14754" lon="5.43862">
        <ele>939</ele>
        <time>2024-10-14T08:18:40.000Z</time>
      </trkpt>
      <trkpt lat="45.14762" lon="5.43869">
        <ele>940</ele>
        <time>2024-10-14T08:18:51.000Z</time>
      </trkpt>
      <trkpt lat="45.1477" lon="5.43875">
        <ele>940.9</ele>
        <time>2024-10-14T08:19:02.000Z</time>
      </trkpt>
      <trkpt lat="45.14779" lon="5.43881">
        <ele>941.9</ele>
        <time>2024-10-14T08:19:12.000Z</time>
      </trkpt>
      <trkpt lat="45.14788" lon="5.43885">
        <ele>943</ele>
        <time>2024-10-14T08:19:24.000Z</time>
      </trkpt>
      <trkpt lat="45.14797" lon="5.43889">
        <ele>944.2</ele>
        <time>2024-10-14T08:19:39.000Z</time>
      </trkpt>
      <trkpt lat="45.14806" lon="5.43894">
        <ele>945</ele>
        <time>2024-10-14T08:19:51.000Z</time>
      </trkpt>
      <trkpt lat="45.1481" lon="5.43906">
        <ele>946.4</ele>
        <time>2024-10-14T08:20:15.000Z</time>
      </trkpt>
      <trkpt lat="45.14816" lon="5.43915">
        <ele>946.7</ele>
        <time>2024-10-14T08:20:32.000Z</time>
      </trkpt>
      <trkpt lat="45.14825" lon="5.4392">
        <ele>947.4</ele>
        <time>2024-10-14T08:23:18.000Z</time>
      </trkpt>
      <trkpt lat="45.14831" lon="5.4393">
        <ele>947.1</ele>
        <time>2024-10-14T08:25:46.000Z</time>
      </trkpt>
      <trkpt lat="45.14839" lon="5.43938">
        <ele>947.4</ele>
        <time>2024-10-14T08:26:00.000Z</time>
      </trkpt>
      <trkpt lat="45.14847" lon="5.43946">
        <ele>947</ele>
        <time>2024-10-14T08:26:08.000Z</time>
      </trkpt>
      <trkpt lat="45.14855" lon="5.43953">
        <ele>945.8</ele>
        <time>2024-10-14T08:26:17.000Z</time>
      </trkpt>
      <trkpt lat="45.14864" lon="5.43958">
        <ele>945.1</ele>
        <time>2024-10-14T08:26:26.000Z</time>
      </trkpt>
      <trkpt lat="45.14873" lon="5.43964">
        <ele>943</ele>
        <time>2024-10-14T08:26:48.000Z</time>
      </trkpt>
      <trkpt lat="45.14881" lon="5.43967">
        <ele>941.8</ele>
        <time>2024-10-14T08:26:57.000Z</time>
      </trkpt>
      <trkpt lat="45.14888" lon="5.43976">
        <ele>940.9</ele>
        <time>2024-10-14T08:27:08.000Z</time>
      </trkpt>
      <trkpt lat="45.14896" lon="5.43983">
        <ele>939.6</ele>
        <time>2024-10-14T08:27:21.000Z</time>
      </trkpt>
      <trkpt lat="45.14902" lon="5.43994">
        <ele>937.6</ele>
        <time>2024-10-14T08:27:40.000Z</time>
      </trkpt>
      <trkpt lat="45.14901" lon="5.44007">
        <ele>935.2</ele>
        <time>2024-10-14T08:27:58.000Z</time>
      </trkpt>
      <trkpt lat="45.149" lon="5.44019">
        <ele>933.2</ele>
        <time>2024-10-14T08:28:15.000Z</time>
      </trkpt>
      <trkpt lat="45.14907" lon="5.44028">
        <ele>932.2</ele>
        <time>2024-10-14T08:28:24.000Z</time>
      </trkpt>
      <trkpt lat="45.14915" lon="5.44036">
        <ele>931.7</ele>
        <time>2024-10-14T08:28:39.000Z</time>
      </trkpt>
      <trkpt lat="45.14922" lon="5.44044">
        <ele>931.4</ele>
        <time>2024-10-14T08:29:02.000Z</time>
      </trkpt>
      <trkpt lat="45.1493" lon="5.44052">
        <ele>930.2</ele>
        <time>2024-10-14T08:29:18.000Z</time>
      </trkpt>
      <trkpt lat="45.14939" lon="5.44058">
        <ele>929.3</ele>
        <time>2024-10-14T08:29:29.000Z</time>
      </trkpt>
      <trkpt lat="45.14949" lon="5.44061">
        <ele>927.8</ele>
        <time>2024-10-14T08:29:41.000Z</time>
      </trkpt>
      <trkpt lat="45.14957" lon="5.44066">
        <ele>926.2</ele>
        <time>2024-10-14T08:29:54.000Z</time>
      </trkpt>
      <trkpt lat="45.14966" lon="5.44069">
        <ele>924.9</ele>
        <time>2024-10-14T08:30:05.000Z</time>
      </trkpt>
      <trkpt lat="45.14975" lon="5.44074">
        <ele>923.3</ele>
        <time>2024-10-14T08:30:16.000Z</time>
      </trkpt>
      <trkpt lat="45.14982" lon="5.44083">
        <ele>921.9</ele>
        <time>2024-10-14T08:30:29.000Z</time>
      </trkpt>
      <trkpt lat="45.14992" lon="5.44081">
        <ele>920.4</ele>
        <time>2024-10-14T08:30:59.000Z</time>
      </trkpt>
      <trkpt lat="45.15001" lon="5.44081">
        <ele>920</ele>
        <time>2024-10-14T08:31:02.000Z</time>
      </trkpt>
      <trkpt lat="45.15011" lon="5.44084">
        <ele>919.9</ele>
        <time>2024-10-14T08:31:06.000Z</time>
      </trkpt>
      <trkpt lat="45.15017" lon="5.44094">
        <ele>917.5</ele>
        <time>2024-10-14T08:31:29.000Z</time>
      </trkpt>
      <trkpt lat="45.15026" lon="5.44096">
        <ele>917.4</ele>
        <time>2024-10-14T08:31:36.000Z</time>
      </trkpt>
      <trkpt lat="45.15031" lon="5.44107">
        <ele>915.3</ele>
        <time>2024-10-14T08:31:54.000Z</time>
      </trkpt>
      <trkpt lat="45.15021" lon="5.44112">
        <ele>913</ele>
        <time>2024-10-14T08:32:18.000Z</time>
      </trkpt>
      <trkpt lat="45.1503" lon="5.44114">
        <ele>912.5</ele>
        <time>2024-10-14T08:32:34.000Z</time>
      </trkpt>
      <trkpt lat="45.1504" lon="5.44111">
        <ele>911.1</ele>
        <time>2024-10-14T08:32:46.000Z</time>
      </trkpt>
      <trkpt lat="45.15048" lon="5.44119">
        <ele>910.5</ele>
        <time>2024-10-14T08:32:56.000Z</time>
      </trkpt>
      <trkpt lat="45.15057" lon="5.44116">
        <ele>909.9</ele>
        <time>2024-10-14T08:33:05.000Z</time>
      </trkpt>
      <trkpt lat="45.15069" lon="5.44117">
        <ele>909.2</ele>
        <time>2024-10-14T08:33:11.000Z</time>
      </trkpt>
      <trkpt lat="45.15078" lon="5.4412">
        <ele>908</ele>
        <time>2024-10-14T08:33:30.000Z</time>
      </trkpt>
      <trkpt lat="45.15087" lon="5.44126">
        <ele>906.3</ele>
        <time>2024-10-14T08:33:44.000Z</time>
      </trkpt>
      <trkpt lat="45.15093" lon="5.44135">
        <ele>905.1</ele>
        <time>2024-10-14T08:33:53.000Z</time>
      </trkpt>
      <trkpt lat="45.15099" lon="5.44145">
        <ele>903.4</ele>
        <time>2024-10-14T08:34:10.000Z</time>
      </trkpt>
      <trkpt lat="45.15105" lon="5.44155">
        <ele>901.9</ele>
        <time>2024-10-14T08:34:25.000Z</time>
      </trkpt>
      <trkpt lat="45.15112" lon="5.44163">
        <ele>900.6</ele>
        <time>2024-10-14T08:34:39.000Z</time>
      </trkpt>
      <trkpt lat="45.15121" lon="5.44168">
        <ele>898.7</ele>
        <time>2024-10-14T08:35:08.000Z</time>
      </trkpt>
      <trkpt lat="45.1513" lon="5.44166">
        <ele>897.5</ele>
        <time>2024-10-14T08:36:08.000Z</time>
      </trkpt>
      <trkpt lat="45.15139" lon="5.44171">
        <ele>895.5</ele>
        <time>2024-10-14T08:36:21.000Z</time>
      </trkpt>
      <trkpt lat="45.15147" lon="5.44177">
        <ele>894.5</ele>
        <time>2024-10-14T08:36:34.000Z</time>
      </trkpt>
      <trkpt lat="45.15154" lon="5.44185">
        <ele>892.8</ele>
        <time>2024-10-14T08:36:47.000Z</time>
      </trkpt>
      <trkpt lat="45.15162" lon="5.4419">
        <ele>892.1</ele>
        <time>2024-10-14T08:37:12.000Z</time>
      </trkpt>
      <trkpt lat="45.1517" lon="5.44197">
        <ele>891</ele>
        <time>2024-10-14T08:37:29.000Z</time>
      </trkpt>
      <trkpt lat="45.15178" lon="5.44205">
        <ele>889.6</ele>
        <time>2024-10-14T08:37:48.000Z</time>
      </trkpt>
      <trkpt lat="45.15186" lon="5.44211">
        <ele>887.8</ele>
        <time>2024-10-14T08:38:46.000Z</time>
      </trkpt>
      <trkpt lat="45.15178" lon="5.44217">
        <ele>887.9</ele>
        <time>2024-10-14T08:39:40.000Z</time>
      </trkpt>
      <trkpt lat="45.15187" lon="5.44216">
        <ele>886.6</ele>
        <time>2024-10-14T08:40:16.000Z</time>
      </trkpt>
      <trkpt lat="45.15196" lon="5.44221">
        <ele>885.1</ele>
        <time>2024-10-14T08:40:41.000Z</time>
      </trkpt>
      <trkpt lat="45.15204" lon="5.4423">
        <ele>883.6</ele>
        <time>2024-10-14T08:40:57.000Z</time>
      </trkpt>
      <trkpt lat="45.15212" lon="5.44235">
        <ele>882.1</ele>
        <time>2024-10-14T08:41:26.000Z</time>
      </trkpt>
      <trkpt lat="45.15219" lon="5.44243">
        <ele>880.6</ele>
        <time>2024-10-14T08:41:57.000Z</time>
      </trkpt>
      <trkpt lat="45.15224" lon="5.44254">
        <ele>878.7</ele>
        <time>2024-10-14T08:42:16.000Z</time>
      </trkpt>
      <trkpt lat="45.15231" lon="5.44262">
        <ele>877.2</ele>
        <time>2024-10-14T08:42:30.000Z</time>
      </trkpt>
      <trkpt lat="45.15238" lon="5.44272">
        <ele>875.5</ele>
        <time>2024-10-14T08:42:45.000Z</time>
      </trkpt>
      <trkpt lat="45.15246" lon="5.44279">
        <ele>874.1</ele>
        <time>2024-10-14T08:43:18.000Z</time>
      </trkpt>
      <trkpt lat="45.15252" lon="5.44288">
        <ele>872.8</ele>
        <time>2024-10-14T08:43:55.000Z</time>
      </trkpt>
      <trkpt lat="45.15258" lon="5.44297">
        <ele>871.6</ele>
        <time>2024-10-14T08:44:17.000Z</time>
      </trkpt>
      <trkpt lat="45.15263" lon="5.44308">
        <ele>869.6</ele>
        <time>2024-10-14T08:44:55.000Z</time>
      </trkpt>
      <trkpt lat="45.15273" lon="5.44311">
        <ele>869.1</ele>
        <time>2024-10-14T08:45:45.000Z</time>
      </trkpt>
      <trkpt lat="45.15278" lon="5.4432">
        <ele>867.6</ele>
        <time>2024-10-14T08:46:11.000Z</time>
      </trkpt>
      <trkpt lat="45.15282" lon="5.44332">
        <ele>866.8</ele>
        <time>2024-10-14T08:46:24.000Z</time>
      </trkpt>
      <trkpt lat="45.15287" lon="5.44345">
        <ele>865</ele>
        <time>2024-10-14T08:46:46.000Z</time>
      </trkpt>
      <trkpt lat="45.15292" lon="5.44355">
        <ele>863.1</ele>
        <time>2024-10-14T08:47:31.000Z</time>
      </trkpt>
      <trkpt lat="45.15295" lon="5.44367">
        <ele>861.8</ele>
        <time>2024-10-14T08:47:48.000Z</time>
      </trkpt>
      <trkpt lat="45.15298" lon="5.4438">
        <ele>860.4</ele>
        <time>2024-10-14T08:48:01.000Z</time>
      </trkpt>
      <trkpt lat="45.15299" lon="5.44393">
        <ele>859</ele>
        <time>2024-10-14T08:48:12.000Z</time>
      </trkpt>
      <trkpt lat="45.15301" lon="5.44406">
        <ele>857.6</ele>
        <time>2024-10-14T08:48:26.000Z</time>
      </trkpt>
      <trkpt lat="45.15302" lon="5.4442">
        <ele>856.5</ele>
        <time>2024-10-14T08:48:41.000Z</time>
      </trkpt>
      <trkpt lat="45.15299" lon="5.44432">
        <ele>855.6</ele>
        <time>2024-10-14T08:48:56.000Z</time>
      </trkpt>
      <trkpt lat="45.15298" lon="5.44445">
        <ele>854.5</ele>
        <time>2024-10-14T08:49:12.000Z</time>
      </trkpt>
      <trkpt lat="45.15296" lon="5.44458">
        <ele>853</ele>
        <time>2024-10-14T08:49:28.000Z</time>
      </trkpt>
      <trkpt lat="45.153" lon="5.4447">
        <ele>850.7</ele>
        <time>2024-10-14T08:50:06.000Z</time>
      </trkpt>
      <trkpt lat="45.15308" lon="5.44478">
        <ele>851.1</ele>
        <time>2024-10-14T08:50:18.000Z</time>
      </trkpt>
      <trkpt lat="45.15315" lon="5.44486">
        <ele>850.7</ele>
        <time>2024-10-14T08:50:32.000Z</time>
      </trkpt>
      <trkpt lat="45.15325" lon="5.4449">
        <ele>849.7</ele>
        <time>2024-10-14T08:50:44.000Z</time>
      </trkpt>
      <trkpt lat="45.15333" lon="5.44496">
        <ele>849</ele>
        <time>2024-10-14T08:50:52.000Z</time>
      </trkpt>
      <trkpt lat="45.15342" lon="5.44495">
        <ele>849</ele>
        <time>2024-10-14T08:51:03.000Z</time>
      </trkpt>
      <trkpt lat="45.15333" lon="5.44492">
        <ele>849.5</ele>
        <time>2024-10-14T08:51:31.000Z</time>
      </trkpt>
      <trkpt lat="45.15325" lon="5.44484">
        <ele>849.5</ele>
        <time>2024-10-14T08:51:46.000Z</time>
      </trkpt>
      <trkpt lat="45.15319" lon="5.44495">
        <ele>849.3</ele>
        <time>2024-10-14T08:52:21.000Z</time>
      </trkpt>
      <trkpt lat="45.15322" lon="5.44481">
        <ele>842.3</ele>
        <time>2024-10-14T08:54:14.000Z</time>
      </trkpt>
      <trkpt lat="45.1533" lon="5.44475">
        <ele>840.8</ele>
        <time>2024-10-14T08:54:29.000Z</time>
      </trkpt>
      <trkpt lat="45.15339" lon="5.44474">
        <ele>839.9</ele>
        <time>2024-10-14T08:54:41.000Z</time>
      </trkpt>
      <trkpt lat="45.15348" lon="5.44476">
        <ele>838</ele>
        <time>2024-10-14T08:54:58.000Z</time>
      </trkpt>
      <trkpt lat="45.15358" lon="5.44481">
        <ele>836.2</ele>
        <time>2024-10-14T08:55:16.000Z</time>
      </trkpt>
      <trkpt lat="45.15366" lon="5.44488">
        <ele>834.5</ele>
        <time>2024-10-14T08:55:43.000Z</time>
      </trkpt>
      <trkpt lat="45.15374" lon="5.44481">
        <ele>833.8</ele>
        <time>2024-10-14T08:55:59.000Z</time>
      </trkpt>
      <trkpt lat="45.15385" lon="5.4448">
        <ele>832.7</ele>
        <time>2024-10-14T08:56:15.000Z</time>
      </trkpt>
      <trkpt lat="45.15394" lon="5.44482">
        <ele>831.8</ele>
        <time>2024-10-14T08:56:26.000Z</time>
      </trkpt>
      <trkpt lat="45.15403" lon="5.44479">
        <ele>830.8</ele>
        <time>2024-10-14T08:56:37.000Z</time>
      </trkpt>
      <trkpt lat="45.15413" lon="5.44479">
        <ele>829.4</ele>
        <time>2024-10-14T08:56:49.000Z</time>
      </trkpt>
      <trkpt lat="45.15421" lon="5.44484">
        <ele>828.2</ele>
        <time>2024-10-14T08:57:08.000Z</time>
      </trkpt>
      <trkpt lat="45.15429" lon="5.44492">
        <ele>826.1</ele>
        <time>2024-10-14T08:57:29.000Z</time>
      </trkpt>
      <trkpt lat="45.15435" lon="5.44502">
        <ele>824.9</ele>
        <time>2024-10-14T08:57:47.000Z</time>
      </trkpt>
      <trkpt lat="45.15442" lon="5.44512">
        <ele>823.6</ele>
        <time>2024-10-14T08:57:58.000Z</time>
      </trkpt>
      <trkpt lat="45.15447" lon="5.44523">
        <ele>822.5</ele>
        <time>2024-10-14T08:58:12.000Z</time>
      </trkpt>
      <trkpt lat="45.15447" lon="5.44537">
        <ele>821.8</ele>
        <time>2024-10-14T08:58:50.000Z</time>
      </trkpt>
      <trkpt lat="45.15449" lon="5.4455">
        <ele>820.5</ele>
        <time>2024-10-14T08:59:03.000Z</time>
      </trkpt>
      <trkpt lat="45.15448" lon="5.44563">
        <ele>819.6</ele>
        <time>2024-10-14T08:59:15.000Z</time>
      </trkpt>
      <trkpt lat="45.15445" lon="5.44575">
        <ele>818.2</ele>
        <time>2024-10-14T08:59:28.000Z</time>
      </trkpt>
      <trkpt lat="45.15446" lon="5.44589">
        <ele>817.4</ele>
        <time>2024-10-14T08:59:40.000Z</time>
      </trkpt>
      <trkpt lat="45.15451" lon="5.446">
        <ele>816.4</ele>
        <time>2024-10-14T08:59:48.000Z</time>
      </trkpt>
      <trkpt lat="45.15456" lon="5.44612">
        <ele>815.1</ele>
        <time>2024-10-14T09:00:07.000Z</time>
      </trkpt>
      <trkpt lat="45.15463" lon="5.44621">
        <ele>813.4</ele>
        <time>2024-10-14T09:00:24.000Z</time>
      </trkpt>
      <trkpt lat="45.1547" lon="5.44629">
        <ele>812.7</ele>
        <time>2024-10-14T09:00:35.000Z</time>
      </trkpt>
      <trkpt lat="45.15475" lon="5.44642">
        <ele>811.6</ele>
        <time>2024-10-14T09:00:45.000Z</time>
      </trkpt>
      <trkpt lat="45.1548" lon="5.44654">
        <ele>810.2</ele>
        <time>2024-10-14T09:00:57.000Z</time>
      </trkpt>
      <trkpt lat="45.15485" lon="5.44665">
        <ele>809.3</ele>
        <time>2024-10-14T09:01:16.000Z</time>
      </trkpt>
      <trkpt lat="45.1549" lon="5.44676">
        <ele>807.9</ele>
        <time>2024-10-14T09:01:55.000Z</time>
      </trkpt>
      <trkpt lat="45.15498" lon="5.44684">
        <ele>807</ele>
        <time>2024-10-14T09:02:05.000Z</time>
      </trkpt>
      <trkpt lat="45.15504" lon="5.44693">
        <ele>805.9</ele>
        <time>2024-10-14T09:02:16.000Z</time>
      </trkpt>
      <trkpt lat="45.155" lon="5.44704">
        <ele>804</ele>
        <time>2024-10-14T09:02:27.000Z</time>
      </trkpt>
      <trkpt lat="45.15493" lon="5.44714">
        <ele>803.6</ele>
        <time>2024-10-14T09:02:48.000Z</time>
      </trkpt>
      <trkpt lat="45.15486" lon="5.44723">
        <ele>803.4</ele>
        <time>2024-10-14T09:03:29.000Z</time>
      </trkpt>
      <trkpt lat="45.15494" lon="5.44717">
        <ele>804.6</ele>
        <time>2024-10-14T09:04:38.000Z</time>
      </trkpt>
      <trkpt lat="45.15504" lon="5.44715">
        <ele>802.5</ele>
        <time>2024-10-14T09:05:16.000Z</time>
      </trkpt>
      <trkpt lat="45.15512" lon="5.4471">
        <ele>800.7</ele>
        <time>2024-10-14T09:05:43.000Z</time>
      </trkpt>
      <trkpt lat="45.15518" lon="5.44699">
        <ele>799.5</ele>
        <time>2024-10-14T09:05:54.000Z</time>
      </trkpt>
      <trkpt lat="45.15527" lon="5.44697">
        <ele>797.8</ele>
        <time>2024-10-14T09:06:12.000Z</time>
      </trkpt>
      <trkpt lat="45.15528" lon="5.4468">
        <ele>797.3</ele>
        <time>2024-10-14T09:06:46.000Z</time>
      </trkpt>
      <trkpt lat="45.15535" lon="5.44689">
        <ele>795.2</ele>
        <time>2024-10-14T09:07:11.000Z</time>
      </trkpt>
      <trkpt lat="45.15544" lon="5.44692">
        <ele>793.7</ele>
        <time>2024-10-14T09:07:26.000Z</time>
      </trkpt>
      <trkpt lat="45.15553" lon="5.447">
        <ele>792.4</ele>
        <time>2024-10-14T09:07:43.000Z</time>
      </trkpt>
      <trkpt lat="45.15559" lon="5.44709">
        <ele>791</ele>
        <time>2024-10-14T09:07:57.000Z</time>
      </trkpt>
      <trkpt lat="45.15566" lon="5.44717">
        <ele>789.7</ele>
        <time>2024-10-14T09:08:09.000Z</time>
      </trkpt>
      <trkpt lat="45.15574" lon="5.44725">
        <ele>788.8</ele>
        <time>2024-10-14T09:08:19.000Z</time>
      </trkpt>
      <trkpt lat="45.1558" lon="5.44736">
        <ele>786.8</ele>
        <time>2024-10-14T09:08:31.000Z</time>
      </trkpt>
      <trkpt lat="45.15584" lon="5.44748">
        <ele>785</ele>
        <time>2024-10-14T09:08:42.000Z</time>
      </trkpt>
      <trkpt lat="45.15591" lon="5.44756">
        <ele>784.6</ele>
        <time>2024-10-14T09:08:49.000Z</time>
      </trkpt>
      <trkpt lat="45.15599" lon="5.44766">
        <ele>783.5</ele>
        <time>2024-10-14T09:08:58.000Z</time>
      </trkpt>
      <trkpt lat="45.15607" lon="5.44774">
        <ele>782.2</ele>
        <time>2024-10-14T09:09:07.000Z</time>
      </trkpt>
      <trkpt lat="45.15613" lon="5.44783">
        <ele>781.3</ele>
        <time>2024-10-14T09:09:30.000Z</time>
      </trkpt>
      <trkpt lat="45.15604" lon="5.44786">
        <ele>780.4</ele>
        <time>2024-10-14T09:11:21.000Z</time>
      </trkpt>
      <trkpt lat="45.15603" lon="5.44799">
        <ele>782.6</ele>
        <time>2024-10-14T09:11:54.000Z</time>
      </trkpt>
      <trkpt lat="45.15603" lon="5.44812">
        <ele>784.8</ele>
        <time>2024-10-14T09:12:11.000Z</time>
      </trkpt>
      <trkpt lat="45.1561" lon="5.44822">
        <ele>785.4</ele>
        <time>2024-10-14T09:12:38.000Z</time>
      </trkpt>
      <trkpt lat="45.15606" lon="5.44834">
        <ele>785.7</ele>
        <time>2024-10-14T09:13:01.000Z</time>
      </trkpt>
      <trkpt lat="45.156" lon="5.44844">
        <ele>786.7</ele>
        <time>2024-10-14T09:13:24.000Z</time>
      </trkpt>
      <trkpt lat="45.156" lon="5.44857">
        <ele>788.7</ele>
        <time>2024-10-14T09:13:47.000Z</time>
      </trkpt>
      <trkpt lat="45.156" lon="5.4487">
        <ele>789.7</ele>
        <time>2024-10-14T09:14:08.000Z</time>
      </trkpt>
      <trkpt lat="45.15591" lon="5.44874">
        <ele>791.2</ele>
        <time>2024-10-14T09:14:36.000Z</time>
      </trkpt>
      <trkpt lat="45.15585" lon="5.44884">
        <ele>791.4</ele>
        <time>2024-10-14T09:15:16.000Z</time>
      </trkpt>
      <trkpt lat="45.15575" lon="5.44887">
        <ele>791.8</ele>
        <time>2024-10-14T09:15:46.000Z</time>
      </trkpt>
      <trkpt lat="45.15585" lon="5.44885">
        <ele>791.9</ele>
        <time>2024-10-14T09:16:16.000Z</time>
      </trkpt>
      <trkpt lat="45.1559" lon="5.44895">
        <ele>792.6</ele>
        <time>2024-10-14T09:17:07.000Z</time>
      </trkpt>
      <trkpt lat="45.15596" lon="5.44906">
        <ele>795.7</ele>
        <time>2024-10-14T09:18:18.000Z</time>
      </trkpt>
      <trkpt lat="45.15603" lon="5.44914">
        <ele>797.1</ele>
        <time>2024-10-14T09:18:51.000Z</time>
      </trkpt>
      <trkpt lat="45.15606" lon="5.44926">
        <ele>799.9</ele>
        <time>2024-10-14T09:19:14.000Z</time>
      </trkpt>
      <trkpt lat="45.15607" lon="5.44939">
        <ele>801.4</ele>
        <time>2024-10-14T09:19:35.000Z</time>
      </trkpt>
      <trkpt lat="45.15613" lon="5.44951">
        <ele>803.2</ele>
        <time>2024-10-14T09:19:50.000Z</time>
      </trkpt>
      <trkpt lat="45.15618" lon="5.44963">
        <ele>806.8</ele>
        <time>2024-10-14T09:20:11.000Z</time>
      </trkpt>
      <trkpt lat="45.15622" lon="5.44974">
        <ele>810.1</ele>
        <time>2024-10-14T09:20:35.000Z</time>
      </trkpt>
      <trkpt lat="45.15622" lon="5.44988">
        <ele>810.9</ele>
        <time>2024-10-14T09:20:46.000Z</time>
      </trkpt>
      <trkpt lat="45.15627" lon="5.44999">
        <ele>812.6</ele>
        <time>2024-10-14T09:21:00.000Z</time>
      </trkpt>
      <trkpt lat="45.15629" lon="5.45011">
        <ele>814.7</ele>
        <time>2024-10-14T09:21:21.000Z</time>
      </trkpt>
      <trkpt lat="45.15627" lon="5.45024">
        <ele>817.2</ele>
        <time>2024-10-14T09:21:39.000Z</time>
      </trkpt>
      <trkpt lat="45.15625" lon="5.45037">
        <ele>820.7</ele>
        <time>2024-10-14T09:22:00.000Z</time>
      </trkpt>
      <trkpt lat="45.15626" lon="5.4505">
        <ele>822</ele>
        <time>2024-10-14T09:22:44.000Z</time>
      </trkpt>
      <trkpt lat="45.15621" lon="5.45061">
        <ele>824</ele>
        <time>2024-10-14T09:23:27.000Z</time>
      </trkpt>
      <trkpt lat="45.15617" lon="5.45074">
        <ele>825.9</ele>
        <time>2024-10-14T09:23:42.000Z</time>
      </trkpt>
      <trkpt lat="45.15615" lon="5.45086">
        <ele>827.7</ele>
        <time>2024-10-14T09:23:57.000Z</time>
      </trkpt>
      <trkpt lat="45.15609" lon="5.45097">
        <ele>829.5</ele>
        <time>2024-10-14T09:24:10.000Z</time>
      </trkpt>
      <trkpt lat="45.15606" lon="5.45109">
        <ele>830.4</ele>
        <time>2024-10-14T09:24:19.000Z</time>
      </trkpt>
      <trkpt lat="45.15608" lon="5.45122">
        <ele>832</ele>
        <time>2024-10-14T09:24:38.000Z</time>
      </trkpt>
      <trkpt lat="45.15609" lon="5.45135">
        <ele>833.9</ele>
        <time>2024-10-14T09:24:52.000Z</time>
      </trkpt>
      <trkpt lat="45.15611" lon="5.45147">
        <ele>835.7</ele>
        <time>2024-10-14T09:25:04.000Z</time>
      </trkpt>
      <trkpt lat="45.15614" lon="5.4516">
        <ele>837.2</ele>
        <time>2024-10-14T09:25:15.000Z</time>
      </trkpt>
      <trkpt lat="45.15619" lon="5.45171">
        <ele>838.3</ele>
        <time>2024-10-14T09:25:37.000Z</time>
      </trkpt>
      <trkpt lat="45.15624" lon="5.45182">
        <ele>837.4</ele>
        <time>2024-10-14T09:25:58.000Z</time>
      </trkpt>
      <trkpt lat="45.15626" lon="5.45195">
        <ele>837.4</ele>
        <time>2024-10-14T09:26:08.000Z</time>
      </trkpt>
      <trkpt lat="45.15632" lon="5.45205">
        <ele>836.6</ele>
        <time>2024-10-14T09:26:18.000Z</time>
      </trkpt>
      <trkpt lat="45.15635" lon="5.45217">
        <ele>837</ele>
        <time>2024-10-14T09:26:42.000Z</time>
      </trkpt>
      <trkpt lat="45.15636" lon="5.4523">
        <ele>838.2</ele>
        <time>2024-10-14T09:26:58.000Z</time>
      </trkpt>
      <trkpt lat="45.15636" lon="5.45243">
        <ele>839.6</ele>
        <time>2024-10-14T09:27:09.000Z</time>
      </trkpt>
      <trkpt lat="45.15632" lon="5.45256">
        <ele>841.2</ele>
        <time>2024-10-14T09:27:22.000Z</time>
      </trkpt>
      <trkpt lat="45.15631" lon="5.45268">
        <ele>843.8</ele>
        <time>2024-10-14T09:27:44.000Z</time>
      </trkpt>
      <trkpt lat="45.15632" lon="5.45281">
        <ele>844.7</ele>
        <time>2024-10-14T09:28:04.000Z</time>
      </trkpt>
      <trkpt lat="45.15634" lon="5.45293">
        <ele>847.4</ele>
        <time>2024-10-14T09:28:37.000Z</time>
      </trkpt>
      <trkpt lat="45.15634" lon="5.45307">
        <ele>848.6</ele>
        <time>2024-10-14T09:28:57.000Z</time>
      </trkpt>
      <trkpt lat="45.1564" lon="5.45317">
        <ele>850.5</ele>
        <time>2024-10-14T09:29:15.000Z</time>
      </trkpt>
      <trkpt lat="45.15642" lon="5.45329">
        <ele>850.8</ele>
        <time>2024-10-14T09:29:54.000Z</time>
      </trkpt>
      <trkpt lat="45.15638" lon="5.45341">
        <ele>850.4</ele>
        <time>2024-10-14T09:30:24.000Z</time>
      </trkpt>
      <trkpt lat="45.15647" lon="5.45344">
        <ele>850.2</ele>
        <time>2024-10-14T09:30:46.000Z</time>
      </trkpt>
      <trkpt lat="45.15647" lon="5.45331">
        <ele>850.4</ele>
        <time>2024-10-14T09:31:32.000Z</time>
      </trkpt>
      <trkpt lat="45.15649" lon="5.45344">
        <ele>850.4</ele>
        <time>2024-10-14T09:31:55.000Z</time>
      </trkpt>
      <trkpt lat="45.1564" lon="5.4534">
        <ele>850.2</ele>
        <time>2024-10-14T09:32:40.000Z</time>
      </trkpt>
      <trkpt lat="45.15631" lon="5.45345">
        <ele>850</ele>
        <time>2024-10-14T09:33:22.000Z</time>
      </trkpt>
      <trkpt lat="45.15635" lon="5.45331">
        <ele>849.7</ele>
        <time>2024-10-14T09:34:10.000Z</time>
      </trkpt>
      <trkpt lat="45.15633" lon="5.45344">
        <ele>853</ele>
        <time>2024-10-14T09:34:39.000Z</time>
      </trkpt>
      <trkpt lat="45.15634" lon="5.45358">
        <ele>858.1</ele>
        <time>2024-10-14T09:35:07.000Z</time>
      </trkpt>
      <trkpt lat="45.15629" lon="5.45369">
        <ele>860.8</ele>
        <time>2024-10-14T09:35:25.000Z</time>
      </trkpt>
      <trkpt lat="45.15623" lon="5.45379">
        <ele>863.9</ele>
        <time>2024-10-14T09:35:53.000Z</time>
      </trkpt>
      <trkpt lat="45.15618" lon="5.4539">
        <ele>868.2</ele>
        <time>2024-10-14T09:36:23.000Z</time>
      </trkpt>
      <trkpt lat="45.15611" lon="5.45399">
        <ele>872.5</ele>
        <time>2024-10-14T09:37:01.000Z</time>
      </trkpt>
      <trkpt lat="45.15603" lon="5.45404">
        <ele>875.4</ele>
        <time>2024-10-14T09:37:25.000Z</time>
      </trkpt>
      <trkpt lat="45.15596" lon="5.45413">
        <ele>877.6</ele>
        <time>2024-10-14T09:37:43.000Z</time>
      </trkpt>
      <trkpt lat="45.15595" lon="5.45427">
        <ele>880.5</ele>
        <time>2024-10-14T09:38:02.000Z</time>
      </trkpt>
      <trkpt lat="45.15602" lon="5.45438">
        <ele>880</ele>
        <time>2024-10-14T09:38:42.000Z</time>
      </trkpt>
      <trkpt lat="45.156" lon="5.45452">
        <ele>882</ele>
        <time>2024-10-14T09:39:11.000Z</time>
      </trkpt>
      <trkpt lat="45.15594" lon="5.45462">
        <ele>884.2</ele>
        <time>2024-10-14T09:39:34.000Z</time>
      </trkpt>
      <trkpt lat="45.15591" lon="5.45474">
        <ele>885.3</ele>
        <time>2024-10-14T09:39:56.000Z</time>
      </trkpt>
      <trkpt lat="45.15588" lon="5.45486">
        <ele>886.2</ele>
        <time>2024-10-14T09:40:52.000Z</time>
      </trkpt>
      <trkpt lat="45.15592" lon="5.45498">
        <ele>887</ele>
        <time>2024-10-14T09:41:57.000Z</time>
      </trkpt>
      <trkpt lat="45.15594" lon="5.45511">
        <ele>892.8</ele>
        <time>2024-10-14T09:43:00.000Z</time>
      </trkpt>
      <trkpt lat="45.15593" lon="5.45524">
        <ele>897.5</ele>
        <time>2024-10-14T09:43:43.000Z</time>
      </trkpt>
      <trkpt lat="45.15589" lon="5.45535">
        <ele>900</ele>
        <time>2024-10-14T09:43:59.000Z</time>
      </trkpt>
      <trkpt lat="45.15593" lon="5.45547">
        <ele>904</ele>
        <time>2024-10-14T09:44:46.000Z</time>
      </trkpt>
      <trkpt lat="45.15584" lon="5.45547">
        <ele>906.8</ele>
        <time>2024-10-14T09:45:23.000Z</time>
      </trkpt>
      <trkpt lat="45.15585" lon="5.4556">
        <ele>908.4</ele>
        <time>2024-10-14T09:46:59.000Z</time>
      </trkpt>
      <trkpt lat="45.1559" lon="5.45571">
        <ele>908.8</ele>
        <time>2024-10-14T09:47:21.000Z</time>
      </trkpt>
      <trkpt lat="45.1559" lon="5.45585">
        <ele>910.6</ele>
        <time>2024-10-14T09:48:55.000Z</time>
      </trkpt>
      <trkpt lat="45.15593" lon="5.45597">
        <ele>912.8</ele>
        <time>2024-10-14T09:49:13.000Z</time>
      </trkpt>
      <trkpt lat="45.15583" lon="5.45599">
        <ele>913</ele>
        <time>2024-10-14T09:49:28.000Z</time>
      </trkpt>
      <trkpt lat="45.15577" lon="5.45608">
        <ele>912.8</ele>
        <time>2024-10-14T09:50:05.000Z</time>
      </trkpt>
      <trkpt lat="45.15571" lon="5.4562">
        <ele>912.8</ele>
        <time>2024-10-14T09:50:23.000Z</time>
      </trkpt>
      <trkpt lat="45.1558" lon="5.45626">
        <ele>914</ele>
        <time>2024-10-14T09:50:59.000Z</time>
      </trkpt>
      <trkpt lat="45.15581" lon="5.45613">
        <ele>914.6</ele>
        <time>2024-10-14T09:51:14.000Z</time>
      </trkpt>
      <trkpt lat="45.15586" lon="5.45601">
        <ele>914.4</ele>
        <time>2024-10-14T09:51:33.000Z</time>
      </trkpt>
      <trkpt lat="45.15582" lon="5.45614">
        <ele>913.8</ele>
        <time>2024-10-14T09:52:54.000Z</time>
      </trkpt>
      <trkpt lat="45.15575" lon="5.45623">
        <ele>913.9</ele>
        <time>2024-10-14T09:54:03.000Z</time>
      </trkpt>
      <trkpt lat="45.15569" lon="5.45633">
        <ele>913.9</ele>
        <time>2024-10-14T09:54:27.000Z</time>
      </trkpt>
      <trkpt lat="45.15573" lon="5.45621">
        <ele>914.3</ele>
        <time>2024-10-14T09:54:59.000Z</time>
      </trkpt>
      <trkpt lat="45.15582" lon="5.45626">
        <ele>914.3</ele>
        <time>2024-10-14T09:55:25.000Z</time>
      </trkpt>
      <trkpt lat="45.15592" lon="5.45628">
        <ele>914</ele>
        <time>2024-10-14T09:56:21.000Z</time>
      </trkpt>
      <trkpt lat="45.15588" lon="5.4564">
        <ele>917.7</ele>
        <time>2024-10-14T09:56:54.000Z</time>
      </trkpt>
      <trkpt lat="45.15595" lon="5.45648">
        <ele>918.8</ele>
        <time>2024-10-14T09:57:28.000Z</time>
      </trkpt>
      <trkpt lat="45.15605" lon="5.45652">
        <ele>918.4</ele>
        <time>2024-10-14T09:57:50.000Z</time>
      </trkpt>
      <trkpt lat="45.15594" lon="5.45643">
        <ele>918</ele>
        <time>2024-10-14T09:58:44.000Z</time>
      </trkpt>
      <trkpt lat="45.15587" lon="5.45652">
        <ele>918.6</ele>
        <time>2024-10-14T09:59:00.000Z</time>
      </trkpt>
      <trkpt lat="45.15596" lon="5.45652">
        <ele>918.7</ele>
        <time>2024-10-14T09:59:14.000Z</time>
      </trkpt>
      <trkpt lat="45.15605" lon="5.45655">
        <ele>919.7</ele>
        <time>2024-10-14T10:00:28.000Z</time>
      </trkpt>
      <trkpt lat="45.156" lon="5.45667">
        <ele>918.6</ele>
        <time>2024-10-14T10:00:48.000Z</time>
      </trkpt>
      <trkpt lat="45.15603" lon="5.45654">
        <ele>918.5</ele>
        <time>2024-10-14T10:02:07.000Z</time>
      </trkpt>
      <trkpt lat="45.15595" lon="5.45647">
        <ele>918.9</ele>
        <time>2024-10-14T10:03:12.000Z</time>
      </trkpt>
      <trkpt lat="45.15586" lon="5.45642">
        <ele>918.9</ele>
        <time>2024-10-14T10:03:22.000Z</time>
      </trkpt>
      <trkpt lat="45.15581" lon="5.45633">
        <ele>917.6</ele>
        <time>2024-10-14T10:03:42.000Z</time>
      </trkpt>
      <trkpt lat="45.15574" lon="5.45624">
        <ele>914.1</ele>
        <time>2024-10-14T10:05:12.000Z</time>
      </trkpt>
      <trkpt lat="45.15572" lon="5.4561">
        <ele>914.2</ele>
        <time>2024-10-14T10:05:31.000Z</time>
      </trkpt>
      <trkpt lat="45.15563" lon="5.45614">
        <ele>913.2</ele>
        <time>2024-10-14T10:06:29.000Z</time>
      </trkpt>
      <trkpt lat="45.15563" lon="5.45601">
        <ele>913.3</ele>
        <time>2024-10-14T10:07:19.000Z</time>
      </trkpt>
      <trkpt lat="45.15566" lon="5.45589">
        <ele>910.5</ele>
        <time>2024-10-14T10:08:02.000Z</time>
      </trkpt>
      <trkpt lat="45.15576" lon="5.45583">
        <ele>908.7</ele>
        <time>2024-10-14T10:08:38.000Z</time>
      </trkpt>
      <trkpt lat="45.15585" lon="5.45579">
        <ele>908.3</ele>
        <time>2024-10-14T10:09:17.000Z</time>
      </trkpt>
      <trkpt lat="45.15582" lon="5.45567">
        <ele>907</ele>
        <time>2024-10-14T10:11:59.000Z</time>
      </trkpt>
      <trkpt lat="45.15589" lon="5.4556">
        <ele>903.8</ele>
        <time>2024-10-14T10:12:26.000Z</time>
      </trkpt>
      <trkpt lat="45.15589" lon="5.45546">
        <ele>899</ele>
        <time>2024-10-14T10:13:28.000Z</time>
      </trkpt>
      <trkpt lat="45.1559" lon="5.45533">
        <ele>895.2</ele>
        <time>2024-10-14T10:13:49.000Z</time>
      </trkpt>
      <trkpt lat="45.15596" lon="5.45524">
        <ele>892</ele>
        <time>2024-10-14T10:15:03.000Z</time>
      </trkpt>
      <trkpt lat="45.15603" lon="5.45515">
        <ele>891.5</ele>
        <time>2024-10-14T10:15:36.000Z</time>
      </trkpt>
      <trkpt lat="45.15612" lon="5.45511">
        <ele>891.5</ele>
        <time>2024-10-14T10:15:52.000Z</time>
      </trkpt>
      <trkpt lat="45.15607" lon="5.45499">
        <ele>887.7</ele>
        <time>2024-10-14T10:16:53.000Z</time>
      </trkpt>
      <trkpt lat="45.15607" lon="5.45485">
        <ele>885.2</ele>
        <time>2024-10-14T10:19:09.000Z</time>
      </trkpt>
      <trkpt lat="45.15607" lon="5.45472">
        <ele>883.8</ele>
        <time>2024-10-14T10:19:29.000Z</time>
      </trkpt>
      <trkpt lat="45.15607" lon="5.45458">
        <ele>881.3</ele>
        <time>2024-10-14T10:19:44.000Z</time>
      </trkpt>
      <trkpt lat="45.15608" lon="5.45445">
        <ele>878.8</ele>
        <time>2024-10-14T10:20:00.000Z</time>
      </trkpt>
      <trkpt lat="45.1561" lon="5.45433">
        <ele>876.4</ele>
        <time>2024-10-14T10:20:13.000Z</time>
      </trkpt>
      <trkpt lat="45.15612" lon="5.4542">
        <ele>873.7</ele>
        <time>2024-10-14T10:20:30.000Z</time>
      </trkpt>
      <trkpt lat="45.15614" lon="5.45407">
        <ele>870.9</ele>
        <time>2024-10-14T10:20:50.000Z</time>
      </trkpt>
      <trkpt lat="45.15621" lon="5.45399">
        <ele>867.4</ele>
        <time>2024-10-14T10:21:12.000Z</time>
      </trkpt>
      <trkpt lat="45.15625" lon="5.45386">
        <ele>864.9</ele>
        <time>2024-10-14T10:21:20.000Z</time>
      </trkpt>
      <trkpt lat="45.1563" lon="5.45374">
        <ele>862.2</ele>
        <time>2024-10-14T10:21:34.000Z</time>
      </trkpt>
      <trkpt lat="45.1563" lon="5.45359">
        <ele>857.7</ele>
        <time>2024-10-14T10:21:49.000Z</time>
      </trkpt>
      <trkpt lat="45.1563" lon="5.45346">
        <ele>853.8</ele>
        <time>2024-10-14T10:21:57.000Z</time>
      </trkpt>
      <trkpt lat="45.15627" lon="5.45334">
        <ele>850.6</ele>
        <time>2024-10-14T10:22:21.000Z</time>
      </trkpt>
      <trkpt lat="45.1563" lon="5.45322">
        <ele>851.5</ele>
        <time>2024-10-14T10:22:59.000Z</time>
      </trkpt>
      <trkpt lat="45.15635" lon="5.45333">
        <ele>850.2</ele>
        <time>2024-10-14T10:24:21.000Z</time>
      </trkpt>
      <trkpt lat="45.15645" lon="5.45327">
        <ele>850</ele>
        <time>2024-10-14T10:24:56.000Z</time>
      </trkpt>
      <trkpt lat="45.15634" lon="5.45319">
        <ele>850</ele>
        <time>2024-10-14T10:25:09.000Z</time>
      </trkpt>
      <trkpt lat="45.15634" lon="5.45333">
        <ele>850.2</ele>
        <time>2024-10-14T10:25:24.000Z</time>
      </trkpt>
      <trkpt lat="45.15642" lon="5.45327">
        <ele>849.7</ele>
        <time>2024-10-14T10:26:13.000Z</time>
      </trkpt>
      <trkpt lat="45.15641" lon="5.45314">
        <ele>850.6</ele>
        <time>2024-10-14T10:26:44.000Z</time>
      </trkpt>
      <trkpt lat="45.15638" lon="5.45301">
        <ele>849</ele>
        <time>2024-10-14T10:27:01.000Z</time>
      </trkpt>
      <trkpt lat="45.15632" lon="5.45292">
        <ele>847.3</ele>
        <time>2024-10-14T10:27:34.000Z</time>
      </trkpt>
      <trkpt lat="45.15632" lon="5.45278">
        <ele>845.8</ele>
        <time>2024-10-14T10:27:46.000Z</time>
      </trkpt>
      <trkpt lat="45.15629" lon="5.45266">
        <ele>842.9</ele>
        <time>2024-10-14T10:28:07.000Z</time>
      </trkpt>
      <trkpt lat="45.15629" lon="5.45253">
        <ele>840.2</ele>
        <time>2024-10-14T10:28:25.000Z</time>
      </trkpt>
      <trkpt lat="45.1564" lon="5.45252">
        <ele>839.9</ele>
        <time>2024-10-14T10:28:35.000Z</time>
      </trkpt>
      <trkpt lat="45.1564" lon="5.45239">
        <ele>837.6</ele>
        <time>2024-10-14T10:29:10.000Z</time>
      </trkpt>
      <trkpt lat="45.15636" lon="5.45227">
        <ele>837.4</ele>
        <time>2024-10-14T10:30:37.000Z</time>
      </trkpt>
      <trkpt lat="45.15632" lon="5.45216">
        <ele>835.7</ele>
        <time>2024-10-14T10:30:54.000Z</time>
      </trkpt>
      <trkpt lat="45.15629" lon="5.45203">
        <ele>835.9</ele>
        <time>2024-10-14T10:31:05.000Z</time>
      </trkpt>
      <trkpt lat="45.15622" lon="5.45192">
        <ele>836.2</ele>
        <time>2024-10-14T10:31:13.000Z</time>
      </trkpt>
      <trkpt lat="45.15615" lon="5.45183">
        <ele>836.6</ele>
        <time>2024-10-14T10:31:23.000Z</time>
      </trkpt>
      <trkpt lat="45.15608" lon="5.45174">
        <ele>836.8</ele>
        <time>2024-10-14T10:31:33.000Z</time>
      </trkpt>
      <trkpt lat="45.15604" lon="5.45162">
        <ele>836.5</ele>
        <time>2024-10-14T10:31:50.000Z</time>
      </trkpt>
      <trkpt lat="45.156" lon="5.4515">
        <ele>835.5</ele>
        <time>2024-10-14T10:31:59.000Z</time>
      </trkpt>
      <trkpt lat="45.15596" lon="5.45137">
        <ele>833</ele>
        <time>2024-10-14T10:32:10.000Z</time>
      </trkpt>
      <trkpt lat="45.15591" lon="5.45126">
        <ele>831.6</ele>
        <time>2024-10-14T10:32:21.000Z</time>
      </trkpt>
      <trkpt lat="45.15588" lon="5.45112">
        <ele>830.5</ele>
        <time>2024-10-14T10:32:34.000Z</time>
      </trkpt>
      <trkpt lat="45.15586" lon="5.45099">
        <ele>828.4</ele>
        <time>2024-10-14T10:32:51.000Z</time>
      </trkpt>
      <trkpt lat="45.15586" lon="5.45086">
        <ele>825.9</ele>
        <time>2024-10-14T10:33:08.000Z</time>
      </trkpt>
      <trkpt lat="45.1559" lon="5.45073">
        <ele>823.3</ele>
        <time>2024-10-14T10:33:20.000Z</time>
      </trkpt>
      <trkpt lat="45.1559" lon="5.4506">
        <ele>821.7</ele>
        <time>2024-10-14T10:33:36.000Z</time>
      </trkpt>
      <trkpt lat="45.15589" lon="5.45047">
        <ele>819.4</ele>
        <time>2024-10-14T10:33:53.000Z</time>
      </trkpt>
      <trkpt lat="45.15591" lon="5.45034">
        <ele>816</ele>
        <time>2024-10-14T10:34:14.000Z</time>
      </trkpt>
      <trkpt lat="45.1559" lon="5.4502">
        <ele>814</ele>
        <time>2024-10-14T10:34:32.000Z</time>
      </trkpt>
      <trkpt lat="45.15591" lon="5.45007">
        <ele>811.6</ele>
        <time>2024-10-14T10:34:52.000Z</time>
      </trkpt>
      <trkpt lat="45.15588" lon="5.44994">
        <ele>810.7</ele>
        <time>2024-10-14T10:35:04.000Z</time>
      </trkpt>
      <trkpt lat="45.15589" lon="5.44981">
        <ele>808.5</ele>
        <time>2024-10-14T10:35:22.000Z</time>
      </trkpt>
      <trkpt lat="45.15591" lon="5.44968">
        <ele>805.2</ele>
        <time>2024-10-14T10:35:35.000Z</time>
      </trkpt>
      <trkpt lat="45.15596" lon="5.44957">
        <ele>802.6</ele>
        <time>2024-10-14T10:35:51.000Z</time>
      </trkpt>
      <trkpt lat="45.15606" lon="5.44956">
        <ele>802.5</ele>
        <time>2024-10-14T10:35:58.000Z</time>
      </trkpt>
      <trkpt lat="45.15614" lon="5.44949">
        <ele>802.8</ele>
        <time>2024-10-14T10:36:24.000Z</time>
      </trkpt>
      <trkpt lat="45.15605" lon="5.44949">
        <ele>803.1</ele>
        <time>2024-10-14T10:36:57.000Z</time>
      </trkpt>
      <trkpt lat="45.15599" lon="5.4494">
        <ele>801</ele>
        <time>2024-10-14T10:37:37.000Z</time>
      </trkpt>
      <trkpt lat="45.156" lon="5.44926">
        <ele>800.6</ele>
        <time>2024-10-14T10:38:29.000Z</time>
      </trkpt>
      <trkpt lat="45.15598" lon="5.44914">
        <ele>799.2</ele>
        <time>2024-10-14T10:38:43.000Z</time>
      </trkpt>
      <trkpt lat="45.15594" lon="5.44901">
        <ele>797.7</ele>
        <time>2024-10-14T10:38:58.000Z</time>
      </trkpt>
      <trkpt lat="45.15592" lon="5.44888">
        <ele>795.2</ele>
        <time>2024-10-14T10:39:15.000Z</time>
      </trkpt>
      <trkpt lat="45.15585" lon="5.4488">
        <ele>793.3</ele>
        <time>2024-10-14T10:39:35.000Z</time>
      </trkpt>
      <trkpt lat="45.15578" lon="5.44871">
        <ele>792</ele>
        <time>2024-10-14T10:40:03.000Z</time>
      </trkpt>
      <trkpt lat="45.15576" lon="5.44859">
        <ele>790.8</ele>
        <time>2024-10-14T10:40:17.000Z</time>
      </trkpt>
      <trkpt lat="45.15579" lon="5.44845">
        <ele>789.3</ele>
        <time>2024-10-14T10:40:32.000Z</time>
      </trkpt>
      <trkpt lat="45.15586" lon="5.44837">
        <ele>788</ele>
        <time>2024-10-14T10:40:56.000Z</time>
      </trkpt>
      <trkpt lat="45.15589" lon="5.44825">
        <ele>787.9</ele>
        <time>2024-10-14T10:41:13.000Z</time>
      </trkpt>
      <trkpt lat="45.15589" lon="5.44812">
        <ele>786.2</ele>
        <time>2024-10-14T10:41:33.000Z</time>
      </trkpt>
      <trkpt lat="45.15591" lon="5.44798">
        <ele>784</ele>
        <time>2024-10-14T10:41:51.000Z</time>
      </trkpt>
      <trkpt lat="45.15589" lon="5.44786">
        <ele>782</ele>
        <time>2024-10-14T10:47:22.000Z</time>
      </trkpt>
      <trkpt lat="45.1558" lon="5.44789">
        <ele>781.8</ele>
        <time>2024-10-14T10:52:26.000Z</time>
      </trkpt>
      <trkpt lat="45.15579" lon="5.44776">
        <ele>780.8</ele>
        <time>2024-10-14T10:55:11.000Z</time>
      </trkpt>
      <trkpt lat="45.15585" lon="5.44786">
        <ele>780.7</ele>
        <time>2024-10-14T10:59:23.000Z</time>
      </trkpt>
      <trkpt lat="45.15592" lon="5.44777">
        <ele>779.9</ele>
        <time>2024-10-14T11:04:28.000Z</time>
      </trkpt>
      <trkpt lat="45.15583" lon="5.4478">
        <ele>779.4</ele>
        <time>2024-10-14T11:07:40.000Z</time>
      </trkpt>
      <trkpt lat="45.1559" lon="5.44788">
        <ele>780</ele>
        <time>2024-10-14T11:09:28.000Z</time>
      </trkpt>
      <trkpt lat="45.15599" lon="5.44784">
        <ele>780.2</ele>
        <time>2024-10-14T11:09:42.000Z</time>
      </trkpt>
      <trkpt lat="45.15591" lon="5.44788">
        <ele>779.7</ele>
        <time>2024-10-14T11:10:43.000Z</time>
      </trkpt>
      <trkpt lat="45.156" lon="5.44783">
        <ele>780.7</ele>
        <time>2024-10-14T11:15:55.000Z</time>
      </trkpt>
      <trkpt lat="45.15602" lon="5.44771">
        <ele>781.9</ele>
        <time>2024-10-14T11:18:34.000Z</time>
      </trkpt>
      <trkpt lat="45.15594" lon="5.44778">
        <ele>782</ele>
        <time>2024-10-14T11:19:47.000Z</time>
      </trkpt>
      <trkpt lat="45.15585" lon="5.44782">
        <ele>782.1</ele>
        <time>2024-10-14T11:20:05.000Z</time>
      </trkpt>
      <trkpt lat="45.15594" lon="5.44786">
        <ele>783.3</ele>
        <time>2024-10-14T11:22:09.000Z</time>
      </trkpt>
      <trkpt lat="45.15588" lon="5.44777">
        <ele>785.1</ele>
        <time>2024-10-14T11:26:46.000Z</time>
      </trkpt>
      <trkpt lat="45.15583" lon="5.44765">
        <ele>786.2</ele>
        <time>2024-10-14T11:26:58.000Z</time>
      </trkpt>
      <trkpt lat="45.15579" lon="5.44753">
        <ele>787.5</ele>
        <time>2024-10-14T11:27:11.000Z</time>
      </trkpt>
      <trkpt lat="45.15573" lon="5.44743">
        <ele>789.4</ele>
        <time>2024-10-14T11:27:25.000Z</time>
      </trkpt>
      <trkpt lat="45.15565" lon="5.44735">
        <ele>791.2</ele>
        <time>2024-10-14T11:27:38.000Z</time>
      </trkpt>
      <trkpt lat="45.15557" lon="5.44729">
        <ele>792.6</ele>
        <time>2024-10-14T11:27:54.000Z</time>
      </trkpt>
      <trkpt lat="45.15549" lon="5.44723">
        <ele>794.3</ele>
        <time>2024-10-14T11:28:20.000Z</time>
      </trkpt>
      <trkpt lat="45.15539" lon="5.4472">
        <ele>795</ele>
        <time>2024-10-14T11:28:29.000Z</time>
      </trkpt>
      <trkpt lat="45.15532" lon="5.44712">
        <ele>796.3</ele>
        <time>2024-10-14T11:28:45.000Z</time>
      </trkpt>
      <trkpt lat="45.15523" lon="5.44708">
        <ele>797.7</ele>
        <time>2024-10-14T11:29:00.000Z</time>
      </trkpt>
      <trkpt lat="45.15515" lon="5.44704">
        <ele>799.3</ele>
        <time>2024-10-14T11:29:15.000Z</time>
      </trkpt>
      <trkpt lat="45.15506" lon="5.44705">
        <ele>800.5</ele>
        <time>2024-10-14T11:29:29.000Z</time>
      </trkpt>
      <trkpt lat="45.15496" lon="5.44706">
        <ele>803.2</ele>
        <time>2024-10-14T11:29:52.000Z</time>
      </trkpt>
      <trkpt lat="45.15487" lon="5.44707">
        <ele>804.9</ele>
        <time>2024-10-14T11:30:11.000Z</time>
      </trkpt>
      <trkpt lat="45.15481" lon="5.44697">
        <ele>806.3</ele>
        <time>2024-10-14T11:30:36.000Z</time>
      </trkpt>
      <trkpt lat="45.1548" lon="5.44683">
        <ele>808.1</ele>
        <time>2024-10-14T11:30:57.000Z</time>
      </trkpt>
      <trkpt lat="45.15476" lon="5.44671">
        <ele>809.2</ele>
        <time>2024-10-14T11:31:11.000Z</time>
      </trkpt>
      <trkpt lat="45.15476" lon="5.44657">
        <ele>811.6</ele>
        <time>2024-10-14T11:31:33.000Z</time>
      </trkpt>
      <trkpt lat="45.15472" lon="5.44645">
        <ele>813.1</ele>
        <time>2024-10-14T11:31:48.000Z</time>
      </trkpt>
      <trkpt lat="45.15465" lon="5.44636">
        <ele>814.4</ele>
        <time>2024-10-14T11:32:05.000Z</time>
      </trkpt>
      <trkpt lat="45.15459" lon="5.44626">
        <ele>815.6</ele>
        <time>2024-10-14T11:32:30.000Z</time>
      </trkpt>
      <trkpt lat="45.15454" lon="5.44616">
        <ele>816.9</ele>
        <time>2024-10-14T11:32:44.000Z</time>
      </trkpt>
      <trkpt lat="45.15451" lon="5.44603">
        <ele>818.5</ele>
        <time>2024-10-14T11:32:59.000Z</time>
      </trkpt>
      <trkpt lat="45.1545" lon="5.4459">
        <ele>819.9</ele>
        <time>2024-10-14T11:33:13.000Z</time>
      </trkpt>
      <trkpt lat="45.15451" lon="5.44577">
        <ele>820.9</ele>
        <time>2024-10-14T11:33:26.000Z</time>
      </trkpt>
      <trkpt lat="45.15451" lon="5.44563">
        <ele>821.8</ele>
        <time>2024-10-14T11:33:39.000Z</time>
      </trkpt>
      <trkpt lat="45.15448" lon="5.44551">
        <ele>822.7</ele>
        <time>2024-10-14T11:33:49.000Z</time>
      </trkpt>
      <trkpt lat="45.15449" lon="5.44538">
        <ele>823.7</ele>
        <time>2024-10-14T11:34:04.000Z</time>
      </trkpt>
      <trkpt lat="45.15444" lon="5.44526">
        <ele>824.8</ele>
        <time>2024-10-14T11:34:17.000Z</time>
      </trkpt>
      <trkpt lat="45.15438" lon="5.44515">
        <ele>826.1</ele>
        <time>2024-10-14T11:34:30.000Z</time>
      </trkpt>
      <trkpt lat="45.15431" lon="5.44506">
        <ele>827.4</ele>
        <time>2024-10-14T11:34:42.000Z</time>
      </trkpt>
      <trkpt lat="45.15425" lon="5.44496">
        <ele>828.9</ele>
        <time>2024-10-14T11:34:54.000Z</time>
      </trkpt>
      <trkpt lat="45.15417" lon="5.44489">
        <ele>830.6</ele>
        <time>2024-10-14T11:35:09.000Z</time>
      </trkpt>
      <trkpt lat="45.15408" lon="5.44485">
        <ele>831.6</ele>
        <time>2024-10-14T11:35:22.000Z</time>
      </trkpt>
      <trkpt lat="45.15398" lon="5.44484">
        <ele>834</ele>
        <time>2024-10-14T11:35:37.000Z</time>
      </trkpt>
      <trkpt lat="45.15389" lon="5.44484">
        <ele>834.7</ele>
        <time>2024-10-14T11:35:49.000Z</time>
      </trkpt>
      <trkpt lat="45.15379" lon="5.44484">
        <ele>835.6</ele>
        <time>2024-10-14T11:36:00.000Z</time>
      </trkpt>
      <trkpt lat="45.1537" lon="5.44482">
        <ele>836.7</ele>
        <time>2024-10-14T11:36:14.000Z</time>
      </trkpt>
      <trkpt lat="45.15361" lon="5.44482">
        <ele>837.9</ele>
        <time>2024-10-14T11:36:34.000Z</time>
      </trkpt>
      <trkpt lat="45.15351" lon="5.44481">
        <ele>839.9</ele>
        <time>2024-10-14T11:36:54.000Z</time>
      </trkpt>
      <trkpt lat="45.15342" lon="5.44479">
        <ele>841.1</ele>
        <time>2024-10-14T11:37:07.000Z</time>
      </trkpt>
      <trkpt lat="45.15333" lon="5.44479">
        <ele>843</ele>
        <time>2024-10-14T11:37:27.000Z</time>
      </trkpt>
      <trkpt lat="45.15325" lon="5.44485">
        <ele>844.7</ele>
        <time>2024-10-14T11:37:46.000Z</time>
      </trkpt>
      <trkpt lat="45.15317" lon="5.4449">
        <ele>846.4</ele>
        <time>2024-10-14T11:38:03.000Z</time>
      </trkpt>
      <trkpt lat="45.15308" lon="5.44495">
        <ele>848.1</ele>
        <time>2024-10-14T11:38:19.000Z</time>
      </trkpt>
      <trkpt lat="45.15299" lon="5.44494">
        <ele>850.1</ele>
        <time>2024-10-14T11:38:42.000Z</time>
      </trkpt>
      <trkpt lat="45.15293" lon="5.44484">
        <ele>850.9</ele>
        <time>2024-10-14T11:38:59.000Z</time>
      </trkpt>
      <trkpt lat="45.15295" lon="5.44471">
        <ele>851.7</ele>
        <time>2024-10-14T11:39:15.000Z</time>
      </trkpt>
      <trkpt lat="45.15299" lon="5.44459">
        <ele>852.7</ele>
        <time>2024-10-14T11:39:50.000Z</time>
      </trkpt>
      <trkpt lat="45.15299" lon="5.44445">
        <ele>856.2</ele>
        <time>2024-10-14T11:40:38.000Z</time>
      </trkpt>
      <trkpt lat="45.15306" lon="5.44436">
        <ele>857.4</ele>
        <time>2024-10-14T11:40:55.000Z</time>
      </trkpt>
      <trkpt lat="45.15307" lon="5.44422">
        <ele>858.4</ele>
        <time>2024-10-14T11:41:13.000Z</time>
      </trkpt>
      <trkpt lat="45.15308" lon="5.44409">
        <ele>859.6</ele>
        <time>2024-10-14T11:41:30.000Z</time>
      </trkpt>
      <trkpt lat="45.15309" lon="5.44396">
        <ele>860.9</ele>
        <time>2024-10-14T11:41:43.000Z</time>
      </trkpt>
      <trkpt lat="45.15304" lon="5.44386">
        <ele>862.1</ele>
        <time>2024-10-14T11:41:57.000Z</time>
      </trkpt>
      <trkpt lat="45.15298" lon="5.44375">
        <ele>863.4</ele>
        <time>2024-10-14T11:42:13.000Z</time>
      </trkpt>
      <trkpt lat="45.1529" lon="5.44368">
        <ele>864.4</ele>
        <time>2024-10-14T11:42:26.000Z</time>
      </trkpt>
      <trkpt lat="45.15293" lon="5.44355">
        <ele>866.6</ele>
        <time>2024-10-14T11:42:49.000Z</time>
      </trkpt>
      <trkpt lat="45.15286" lon="5.44345">
        <ele>867.5</ele>
        <time>2024-10-14T11:43:01.000Z</time>
      </trkpt>
      <trkpt lat="45.15278" lon="5.44338">
        <ele>868.3</ele>
        <time>2024-10-14T11:43:19.000Z</time>
      </trkpt>
      <trkpt lat="45.15274" lon="5.44326">
        <ele>869.2</ele>
        <time>2024-10-14T11:43:42.000Z</time>
      </trkpt>
      <trkpt lat="45.15266" lon="5.4432">
        <ele>869.7</ele>
        <time>2024-10-14T11:43:55.000Z</time>
      </trkpt>
      <trkpt lat="45.15266" lon="5.44307">
        <ele>872.3</ele>
        <time>2024-10-14T11:48:03.000Z</time>
      </trkpt>
      <trkpt lat="45.15257" lon="5.44312">
        <ele>872.2</ele>
        <time>2024-10-14T11:50:29.000Z</time>
      </trkpt>
      <trkpt lat="45.1525" lon="5.44305">
        <ele>873.7</ele>
        <time>2024-10-14T11:51:22.000Z</time>
      </trkpt>
      <trkpt lat="45.15252" lon="5.44292">
        <ele>874.1</ele>
        <time>2024-10-14T11:51:46.000Z</time>
      </trkpt>
      <trkpt lat="45.15246" lon="5.44282">
        <ele>874.4</ele>
        <time>2024-10-14T11:52:40.000Z</time>
      </trkpt>
      <trkpt lat="45.15239" lon="5.44274">
        <ele>877.1</ele>
        <time>2024-10-14T11:53:07.000Z</time>
      </trkpt>
      <trkpt lat="45.15231" lon="5.44267">
        <ele>878.1</ele>
        <time>2024-10-14T11:53:21.000Z</time>
      </trkpt>
      <trkpt lat="45.15224" lon="5.4426">
        <ele>879.6</ele>
        <time>2024-10-14T11:53:39.000Z</time>
      </trkpt>
      <trkpt lat="45.15216" lon="5.44252">
        <ele>881.3</ele>
        <time>2024-10-14T11:53:56.000Z</time>
      </trkpt>
      <trkpt lat="45.15208" lon="5.44245">
        <ele>883.1</ele>
        <time>2024-10-14T11:54:22.000Z</time>
      </trkpt>
      <trkpt lat="45.15201" lon="5.44237">
        <ele>884.6</ele>
        <time>2024-10-14T11:54:38.000Z</time>
      </trkpt>
      <trkpt lat="45.15194" lon="5.44229">
        <ele>886.4</ele>
        <time>2024-10-14T11:54:55.000Z</time>
      </trkpt>
      <trkpt lat="45.15185" lon="5.44222">
        <ele>888</ele>
        <time>2024-10-14T11:55:10.000Z</time>
      </trkpt>
      <trkpt lat="45.1518" lon="5.44212">
        <ele>889.2</ele>
        <time>2024-10-14T11:55:42.000Z</time>
      </trkpt>
      <trkpt lat="45.15174" lon="5.44202">
        <ele>890.3</ele>
        <time>2024-10-14T11:56:06.000Z</time>
      </trkpt>
      <trkpt lat="45.15165" lon="5.44198">
        <ele>891.9</ele>
        <time>2024-10-14T11:56:19.000Z</time>
      </trkpt>
      <trkpt lat="45.15158" lon="5.44189">
        <ele>893.6</ele>
        <time>2024-10-14T11:56:37.000Z</time>
      </trkpt>
      <trkpt lat="45.15149" lon="5.44186">
        <ele>894.8</ele>
        <time>2024-10-14T11:56:48.000Z</time>
      </trkpt>
      <trkpt lat="45.1514" lon="5.44186">
        <ele>896.4</ele>
        <time>2024-10-14T11:57:00.000Z</time>
      </trkpt>
      <trkpt lat="45.15131" lon="5.44181">
        <ele>898.5</ele>
        <time>2024-10-14T11:57:15.000Z</time>
      </trkpt>
      <trkpt lat="45.15122" lon="5.44177">
        <ele>899.9</ele>
        <time>2024-10-14T11:57:29.000Z</time>
      </trkpt>
      <trkpt lat="45.15117" lon="5.44167">
        <ele>901.7</ele>
        <time>2024-10-14T11:57:44.000Z</time>
      </trkpt>
      <trkpt lat="45.1511" lon="5.44158">
        <ele>903.5</ele>
        <time>2024-10-14T11:58:01.000Z</time>
      </trkpt>
      <trkpt lat="45.15101" lon="5.44153">
        <ele>905</ele>
        <time>2024-10-14T11:58:15.000Z</time>
      </trkpt>
      <trkpt lat="45.15092" lon="5.44151">
        <ele>907.1</ele>
        <time>2024-10-14T11:58:29.000Z</time>
      </trkpt>
      <trkpt lat="45.15083" lon="5.44146">
        <ele>908.5</ele>
        <time>2024-10-14T11:58:40.000Z</time>
      </trkpt>
      <trkpt lat="45.15077" lon="5.44136">
        <ele>909.9</ele>
        <time>2024-10-14T11:59:04.000Z</time>
      </trkpt>
      <trkpt lat="45.15068" lon="5.44132">
        <ele>910.7</ele>
        <time>2024-10-14T11:59:15.000Z</time>
      </trkpt>
      <trkpt lat="45.15058" lon="5.44131">
        <ele>911.9</ele>
        <time>2024-10-14T11:59:28.000Z</time>
      </trkpt>
      <trkpt lat="45.15051" lon="5.44123">
        <ele>913.8</ele>
        <time>2024-10-14T11:59:44.000Z</time>
      </trkpt>
      <trkpt lat="45.15042" lon="5.44117">
        <ele>914.9</ele>
        <time>2024-10-14T11:59:57.000Z</time>
      </trkpt>
      <trkpt lat="45.15033" lon="5.44118">
        <ele>916.4</ele>
        <time>2024-10-14T12:00:10.000Z</time>
      </trkpt>
      <trkpt lat="45.15024" lon="5.44115">
        <ele>917.6</ele>
        <time>2024-10-14T12:00:20.000Z</time>
      </trkpt>
      <trkpt lat="45.15014" lon="5.44114">
        <ele>918.6</ele>
        <time>2024-10-14T12:00:30.000Z</time>
      </trkpt>
      <trkpt lat="45.15005" lon="5.4411">
        <ele>920</ele>
        <time>2024-10-14T12:00:44.000Z</time>
      </trkpt>
      <trkpt lat="45.15001" lon="5.44098">
        <ele>922</ele>
        <time>2024-10-14T12:01:35.000Z</time>
      </trkpt>
      <trkpt lat="45.15007" lon="5.44089">
        <ele>921.7</ele>
        <time>2024-10-14T12:02:21.000Z</time>
      </trkpt>
      <trkpt lat="45.15001" lon="5.44098">
        <ele>921.4</ele>
        <time>2024-10-14T12:02:57.000Z</time>
      </trkpt>
      <trkpt lat="45.1501" lon="5.44094">
        <ele>921.6</ele>
        <time>2024-10-14T12:03:33.000Z</time>
      </trkpt>
      <trkpt lat="45.15" lon="5.44093">
        <ele>922.2</ele>
        <time>2024-10-14T12:04:17.000Z</time>
      </trkpt>
      <trkpt lat="45.14991" lon="5.44091">
        <ele>922.9</ele>
        <time>2024-10-14T12:04:28.000Z</time>
      </trkpt>
      <trkpt lat="45.14983" lon="5.44083">
        <ele>924.3</ele>
        <time>2024-10-14T12:04:43.000Z</time>
      </trkpt>
      <trkpt lat="45.14974" lon="5.44078">
        <ele>925.7</ele>
        <time>2024-10-14T12:04:57.000Z</time>
      </trkpt>
      <trkpt lat="45.14965" lon="5.44075">
        <ele>927</ele>
        <time>2024-10-14T12:05:12.000Z</time>
      </trkpt>
      <trkpt lat="45.14957" lon="5.4407">
        <ele>928.6</ele>
        <time>2024-10-14T12:05:25.000Z</time>
      </trkpt>
      <trkpt lat="45.14948" lon="5.44066">
        <ele>930.2</ele>
        <time>2024-10-14T12:05:40.000Z</time>
      </trkpt>
      <trkpt lat="45.14939" lon="5.44066">
        <ele>931.2</ele>
        <time>2024-10-14T12:05:49.000Z</time>
      </trkpt>
      <trkpt lat="45.14931" lon="5.44058">
        <ele>932</ele>
        <time>2024-10-14T12:06:01.000Z</time>
      </trkpt>
      <trkpt lat="45.14924" lon="5.44049">
        <ele>932</ele>
        <time>2024-10-14T12:06:15.000Z</time>
      </trkpt>
      <trkpt lat="45.14919" lon="5.44038">
        <ele>932.7</ele>
        <time>2024-10-14T12:06:37.000Z</time>
      </trkpt>
      <trkpt lat="45.14913" lon="5.44028">
        <ele>932.6</ele>
        <time>2024-10-14T12:06:50.000Z</time>
      </trkpt>
      <trkpt lat="45.14908" lon="5.44017">
        <ele>933.3</ele>
        <time>2024-10-14T12:07:03.000Z</time>
      </trkpt>
      <trkpt lat="45.14913" lon="5.44005">
        <ele>935</ele>
        <time>2024-10-14T12:07:16.000Z</time>
      </trkpt>
      <trkpt lat="45.14911" lon="5.43992">
        <ele>936.4</ele>
        <time>2024-10-14T12:07:33.000Z</time>
      </trkpt>
      <trkpt lat="45.14903" lon="5.43985">
        <ele>938</ele>
        <time>2024-10-14T12:07:50.000Z</time>
      </trkpt>
      <trkpt lat="45.14896" lon="5.43978">
        <ele>939.6</ele>
        <time>2024-10-14T12:08:00.000Z</time>
      </trkpt>
      <trkpt lat="45.1489" lon="5.43968">
        <ele>941</ele>
        <time>2024-10-14T12:08:13.000Z</time>
      </trkpt>
      <trkpt lat="45.14883" lon="5.4396">
        <ele>942.5</ele>
        <time>2024-10-14T12:08:26.000Z</time>
      </trkpt>
      <trkpt lat="45.14874" lon="5.43957">
        <ele>944.3</ele>
        <time>2024-10-14T12:08:38.000Z</time>
      </trkpt>
      <trkpt lat="45.14865" lon="5.43954">
        <ele>945.9</ele>
        <time>2024-10-14T12:09:16.000Z</time>
      </trkpt>
      <trkpt lat="45.14858" lon="5.43945">
        <ele>946.3</ele>
        <time>2024-10-14T12:09:53.000Z</time>
      </trkpt>
      <trkpt lat="45.14849" lon="5.43941">
        <ele>947.4</ele>
        <time>2024-10-14T12:10:05.000Z</time>
      </trkpt>
      <trkpt lat="45.14841" lon="5.43935">
        <ele>948.5</ele>
        <time>2024-10-14T12:10:18.000Z</time>
      </trkpt>
      <trkpt lat="45.14834" lon="5.43928">
        <ele>949.3</ele>
        <time>2024-10-14T12:10:30.000Z</time>
      </trkpt>
      <trkpt lat="45.14826" lon="5.4392">
        <ele>948.8</ele>
        <time>2024-10-14T12:10:43.000Z</time>
      </trkpt>
      <trkpt lat="45.1482" lon="5.43909">
        <ele>949.4</ele>
        <time>2024-10-14T12:10:56.000Z</time>
      </trkpt>
      <trkpt lat="45.14817" lon="5.43897">
        <ele>949.1</ele>
        <time>2024-10-14T12:11:17.000Z</time>
      </trkpt>
      <trkpt lat="45.14823" lon="5.43887">
        <ele>948.3</ele>
        <time>2024-10-14T12:11:52.000Z</time>
      </trkpt>
      <trkpt lat="45.1483" lon="5.43878">
        <ele>948.1</ele>
        <time>2024-10-14T12:12:20.000Z</time>
      </trkpt>
      <trkpt lat="45.14838" lon="5.43883">
        <ele>947.7</ele>
        <time>2024-10-14T12:14:19.000Z</time>
      </trkpt>
      <trkpt lat="45.14829" lon="5.43883">
        <ele>950.2</ele>
        <time>2024-10-14T12:32:44.000Z</time>
      </trkpt>
      <trkpt lat="45.1482" lon="5.43886">
        <ele>950.6</ele>
        <time>2024-10-14T12:34:47.000Z</time>
      </trkpt>
      <trkpt lat="45.14811" lon="5.43884">
        <ele>950.4</ele>
        <time>2024-10-14T12:34:57.000Z</time>
      </trkpt>
      <trkpt lat="45.14802" lon="5.43878">
        <ele>949.7</ele>
        <time>2024-10-14T12:35:09.000Z</time>
      </trkpt>
      <trkpt lat="45.14793" lon="5.43882">
        <ele>948.7</ele>
        <time>2024-10-14T12:35:29.000Z</time>
      </trkpt>
      <trkpt lat="45.14784" lon="5.43887">
        <ele>948.2</ele>
        <time>2024-10-14T12:36:12.000Z</time>
      </trkpt>
      <trkpt lat="45.14783" lon="5.439">
        <ele>948.2</ele>
        <time>2024-10-14T12:36:28.000Z</time>
      </trkpt>
      <trkpt lat="45.14788" lon="5.43889">
        <ele>948.4</ele>
        <time>2024-10-14T12:37:13.000Z</time>
      </trkpt>
      <trkpt lat="45.1478" lon="5.4388">
        <ele>947.7</ele>
        <time>2024-10-14T12:38:00.000Z</time>
      </trkpt>
      <trkpt lat="45.14771" lon="5.43875">
        <ele>946.6</ele>
        <time>2024-10-14T12:38:13.000Z</time>
      </trkpt>
      <trkpt lat="45.14762" lon="5.43875">
        <ele>946.1</ele>
        <time>2024-10-14T12:38:38.000Z</time>
      </trkpt>
      <trkpt lat="45.14754" lon="5.43867">
        <ele>945.2</ele>
        <time>2024-10-14T12:38:57.000Z</time>
      </trkpt>
      <trkpt lat="45.14749" lon="5.43857">
        <ele>944.1</ele>
        <time>2024-10-14T12:39:09.000Z</time>
      </trkpt>
      <trkpt lat="45.14743" lon="5.43846">
        <ele>943.6</ele>
        <time>2024-10-14T12:39:21.000Z</time>
      </trkpt>
      <trkpt lat="45.14735" lon="5.43839">
        <ele>942.6</ele>
        <time>2024-10-14T12:39:57.000Z</time>
      </trkpt>
      <trkpt lat="45.14731" lon="5.43828">
        <ele>942.2</ele>
        <time>2024-10-14T12:40:10.000Z</time>
      </trkpt>
      <trkpt lat="45.14725" lon="5.43818">
        <ele>941.8</ele>
        <time>2024-10-14T12:40:23.000Z</time>
      </trkpt>
      <trkpt lat="45.14719" lon="5.43809">
        <ele>940.6</ele>
        <time>2024-10-14T12:41:07.000Z</time>
      </trkpt>
      <trkpt lat="45.14712" lon="5.43799">
        <ele>941.2</ele>
        <time>2024-10-14T12:41:58.000Z</time>
      </trkpt>
      <trkpt lat="45.14706" lon="5.43789">
        <ele>941.3</ele>
        <time>2024-10-14T12:42:09.000Z</time>
      </trkpt>
      <trkpt lat="45.14698" lon="5.43781">
        <ele>941.3</ele>
        <time>2024-10-14T12:42:23.000Z</time>
      </trkpt>
      <trkpt lat="45.14692" lon="5.43771">
        <ele>941.3</ele>
        <time>2024-10-14T12:42:38.000Z</time>
      </trkpt>
      <trkpt lat="45.14687" lon="5.4376">
        <ele>941.6</ele>
        <time>2024-10-14T12:42:50.000Z</time>
      </trkpt>
      <trkpt lat="45.14684" lon="5.43747">
        <ele>941.4</ele>
        <time>2024-10-14T12:43:05.000Z</time>
      </trkpt>
      <trkpt lat="45.14675" lon="5.43742">
        <ele>941.4</ele>
        <time>2024-10-14T12:43:13.000Z</time>
      </trkpt>
      <trkpt lat="45.14666" lon="5.43737">
        <ele>941.2</ele>
        <time>2024-10-14T12:43:24.000Z</time>
      </trkpt>
      <trkpt lat="45.14662" lon="5.43726">
        <ele>940.9</ele>
        <time>2024-10-14T12:43:57.000Z</time>
      </trkpt>
      <trkpt lat="45.14658" lon="5.43713">
        <ele>940.6</ele>
        <time>2024-10-14T12:44:08.000Z</time>
      </trkpt>
      <trkpt lat="45.14667" lon="5.43716">
        <ele>939.3</ele>
        <time>2024-10-14T12:47:03.000Z</time>
      </trkpt>
      <trkpt lat="45.14673" lon="5.43707">
        <ele>939.4</ele>
        <time>2024-10-14T12:48:37.000Z</time>
      </trkpt>
      <trkpt lat="45.1468" lon="5.43698">
        <ele>938.9</ele>
        <time>2024-10-14T12:48:50.000Z</time>
      </trkpt>
      <trkpt lat="45.14688" lon="5.4369">
        <ele>938.1</ele>
        <time>2024-10-14T12:49:19.000Z</time>
      </trkpt>
      <trkpt lat="45.14694" lon="5.4368">
        <ele>937.5</ele>
        <time>2024-10-14T12:49:31.000Z</time>
      </trkpt>
      <trkpt lat="45.14687" lon="5.43688">
        <ele>937.9</ele>
        <time>2024-10-14T12:50:24.000Z</time>
      </trkpt>
      <trkpt lat="45.14681" lon="5.43698">
        <ele>938.8</ele>
        <time>2024-10-14T12:50:36.000Z</time>
      </trkpt>
      <trkpt lat="45.14672" lon="5.43701">
        <ele>939.8</ele>
        <time>2024-10-14T12:50:50.000Z</time>
      </trkpt>
      <trkpt lat="45.14666" lon="5.43712">
        <ele>940.9</ele>
        <time>2024-10-14T12:53:30.000Z</time>
      </trkpt>
      <trkpt lat="45.1466" lon="5.43721">
        <ele>941.9</ele>
        <time>2024-10-14T12:53:53.000Z</time>
      </trkpt>
      <trkpt lat="45.1465" lon="5.43719">
        <ele>941.8</ele>
        <time>2024-10-14T13:04:48.000Z</time>
      </trkpt>
      <trkpt lat="45.14647" lon="5.43718">
        <ele>941.9</ele>
        <time>2024-10-14T13:05:07.000Z</time>
      </trkpt>
    </trkseg>
  </trk>
</gpx>